Hlavní strana
METAR-TAF:

METAR-TAF

Letiště :

Astrachaň, Rusko

zeměpisná šířka: 46-17N, zeměpisná délka: 048-00-23E, výška: 0 m

Aktuální stav počasí

Zpráva byla vytvořena před 31 minutami, v 19:30 UTC
Severoseverovýchodní vítr 4 kt
Teplota -2°C
Vlhkost vzduchu 100%
Tlak 1029 hPa
Viditelnost: 3000 m
Zataženo ve výšce 300 ft
kouřmo

METAR: URWA 191930Z 02002MPS 3000 BR OVC003 M02/M02 Q1029 R09/010070 NOSIG RMK OBST OBSC QFE774/1032

Čas: 00:01 (20:01 UTC)

Předpověď počasí

Zpráva byla vytvořena před 2 hodinami a 44 minutami, v 17:17 UTC
Předpověď platná od 19 v 18 UTC do 20 v 03 UTC
Severoseverovýchodní vítr 6 kt
Viditelnost: 0300 m
Zataženo ve výšce 200 ft
mrznoucí mlha
Dočasný
od 19 v 18 UTC do 19 v 24 UTC
Viditelnost: 1500 m
kouřmo
Dočasný
od 20 v 00 UTC do 20 v 03 UTC
Viditelnost: 3100 m
Zataženo ve výšce 500 ft
kouřmo

TAF: URWA 191717Z 1918/2003 03003MPS 0300 FZFG OVC002 TEMPO 1918/1924 1500 BR TEMPO 2000/2003 3100 BR OVC005

Stav a předpovědi počasí z více než 4 000 letišť (zprávy METAR a TAF).

Červené a žluté tečky na mapě představují dostupné meteorologické stanice.

Když kurzor umístíte na tečku, zobrazí se název stanice.

Pak kliknutím zobrazíte stav a předpověď počasí.

Chcete-li změnit mapu, kliknutím na zelené tlačítko se znaménkem +mapu přiblížíte, kliknutím na zelené tlačítko se znaménkem – mapu oddálíte a kliknutím na zelené šipky přejdete na sousední mapy.


METAR-TAF: